sensor_id;sensor_type;location;lat;lon;timestamp;P1;durP1;ratioP1;P2;durP2;ratioP2
49948;SDS011;35840;45.982;8.890;2022-09-09T00:00:14;5.40;;;3.35;;
49948;SDS011;35840;45.982;8.890;2022-09-09T00:02:45;7.95;;;2.95;;
49948;SDS011;35840;45.982;8.890;2022-09-09T00:05:28;10.80;;;3.25;;
49948;SDS011;35840;45.982;8.890;2022-09-09T00:07:59;5.90;;;3.10;;
49948;SDS011;35840;45.982;8.890;2022-09-09T00:18:28;5.68;;;2.80;;
49948;SDS011;35840;45.982;8.890;2022-09-09T00:21:20;10.48;;;3.22;;
49948;SDS011;35840;45.982;8.890;2022-09-09T00:23:56;3.90;;;3.17;;
49948;SDS011;35840;45.982;8.890;2022-09-09T00:31:40;7.07;;;2.80;;
49948;SDS011;35840;45.982;8.890;2022-09-09T00:34:21;9.68;;;2.63;;
49948;SDS011;35840;45.982;8.890;2022-09-09T00:36:50;10.23;;;3.42;;
49948;SDS011;35840;45.982;8.890;2022-09-09T00:39:24;5.47;;;3.10;;
49948;SDS011;35840;45.982;8.890;2022-09-09T00:44:37;7.40;;;3.15;;
49948;SDS011;35840;45.982;8.890;2022-09-09T00:47:21;5.95;;;2.60;;
49948;SDS011;35840;45.982;8.890;2022-09-09T00:52:57;8.43;;;3.20;;
49948;SDS011;35840;45.982;8.890;2022-09-09T00:55:52;8.80;;;2.97;;
49948;SDS011;35840;45.982;8.890;2022-09-09T00:58:28;6.53;;;2.90;;
49948;SDS011;35840;45.982;8.890;2022-09-09T01:01:03;11.50;;;4.25;;
49948;SDS011;35840;45.982;8.890;2022-09-09T01:03:36;7.13;;;2.80;;
49948;SDS011;35840;45.982;8.890;2022-09-09T01:06:16;4.85;;;2.85;;
49948;SDS011;35840;45.982;8.890;2022-09-09T01:17:14;4.30;;;2.75;;
49948;SDS011;35840;45.982;8.890;2022-09-09T01:20:02;6.30;;;3.15;;
49948;SDS011;35840;45.982;8.890;2022-09-09T01:28:19;6.00;;;2.80;;
49948;SDS011;35840;45.982;8.890;2022-09-09T01:30:51;7.20;;;3.25;;
49948;SDS011;35840;45.982;8.890;2022-09-09T01:33:21;7.53;;;3.22;;
49948;SDS011;35840;45.982;8.890;2022-09-09T01:35:55;5.68;;;2.75;;
49948;SDS011;35840;45.982;8.890;2022-09-09T01:38:31;11.13;;;3.13;;
49948;SDS011;35840;45.982;8.890;2022-09-09T01:40:59;4.70;;;2.70;;
49948;SDS011;35840;45.982;8.890;2022-09-09T01:43:35;6.60;;;2.95;;
49948;SDS011;35840;45.982;8.890;2022-09-09T01:46:03;4.15;;;2.60;;
49948;SDS011;35840;45.982;8.890;2022-09-09T01:48:33;7.93;;;3.20;;
49948;SDS011;35840;45.982;8.890;2022-09-09T01:51:03;9.25;;;2.85;;
49948;SDS011;35840;45.982;8.890;2022-09-09T01:53:30;5.15;;;2.88;;
49948;SDS011;35840;45.982;8.890;2022-09-09T01:58:45;6.60;;;3.47;;
49948;SDS011;35840;45.982;8.890;2022-09-09T02:03:53;4.85;;;2.78;;
49948;SDS011;35840;45.982;8.890;2022-09-09T02:09:22;4.45;;;2.95;;
49948;SDS011;35840;45.982;8.890;2022-09-09T02:12:11;6.43;;;2.08;;
49948;SDS011;35840;45.982;8.890;2022-09-09T02:14:52;8.10;;;2.40;;
49948;SDS011;35840;45.982;8.890;2022-09-09T02:17:27;8.85;;;2.30;;
49948;SDS011;35840;45.982;8.890;2022-09-09T02:20:08;2.13;;;1.60;;
49948;SDS011;35840;45.982;8.890;2022-09-09T02:22:44;3.40;;;2.10;;
49948;SDS011;35840;45.982;8.890;2022-09-09T02:25:18;2.58;;;2.33;;
49948;SDS011;35840;45.982;8.890;2022-09-09T02:27:49;4.18;;;2.45;;
49948;SDS011;35840;45.982;8.890;2022-09-09T02:30:18;3.42;;;2.85;;
49948;SDS011;35840;45.982;8.890;2022-09-09T02:32:54;5.07;;;3.28;;
49948;SDS011;35840;45.982;8.890;2022-09-09T02:35:57;5.25;;;2.90;;
49948;SDS011;35840;45.982;8.890;2022-09-09T02:38:31;7.65;;;2.22;;
49948;SDS011;35840;45.982;8.890;2022-09-09T02:41:08;4.18;;;2.60;;
49948;SDS011;35840;45.982;8.890;2022-09-09T02:43:35;2.53;;;1.40;;
49948;SDS011;35840;45.982;8.890;2022-09-09T02:49:03;3.08;;;1.13;;
49948;SDS011;35840;45.982;8.890;2022-09-09T02:51:52;4.63;;;1.63;;
49948;SDS011;35840;45.982;8.890;2022-09-09T02:54:30;3.05;;;1.77;;
49948;SDS011;35840;45.982;8.890;2022-09-09T02:59:48;5.45;;;2.90;;
49948;SDS011;35840;45.982;8.890;2022-09-09T03:02:16;6.00;;;2.50;;
49948;SDS011;35840;45.982;8.890;2022-09-09T03:04:46;5.53;;;2.47;;
49948;SDS011;35840;45.982;8.890;2022-09-09T03:07:20;4.07;;;2.10;;
49948;SDS011;35840;45.982;8.890;2022-09-09T03:09:49;7.85;;;2.08;;
49948;SDS011;35840;45.982;8.890;2022-09-09T03:12:16;4.32;;;2.20;;
49948;SDS011;35840;45.982;8.890;2022-09-09T03:14:43;8.23;;;2.00;;
49948;SDS011;35840;45.982;8.890;2022-09-09T03:17:11;6.38;;;2.33;;
49948;SDS011;35840;45.982;8.890;2022-09-09T03:19:45;6.00;;;2.17;;
49948;SDS011;35840;45.982;8.890;2022-09-09T03:22:12;3.58;;;2.17;;
49948;SDS011;35840;45.982;8.890;2022-09-09T03:24:41;4.32;;;1.90;;
49948;SDS011;35840;45.982;8.890;2022-09-09T03:27:08;2.10;;;1.73;;
49948;SDS011;35840;45.982;8.890;2022-09-09T03:29:36;6.45;;;1.83;;
49948;SDS011;35840;45.982;8.890;2022-09-09T03:32:06;4.38;;;2.05;;
49948;SDS011;35840;45.982;8.890;2022-09-09T03:34:37;4.13;;;1.90;;
49948;SDS011;35840;45.982;8.890;2022-09-09T03:37:09;3.55;;;1.98;;
49948;SDS011;35840;45.982;8.890;2022-09-09T03:39:36;5.13;;;2.00;;
49948;SDS011;35840;45.982;8.890;2022-09-09T03:42:03;4.28;;;1.85;;
49948;SDS011;35840;45.982;8.890;2022-09-09T03:44:30;2.53;;;1.65;;
49948;SDS011;35840;45.982;8.890;2022-09-09T03:46:57;3.28;;;1.52;;
49948;SDS011;35840;45.982;8.890;2022-09-09T03:49:26;1.98;;;1.45;;
49948;SDS011;35840;45.982;8.890;2022-09-09T03:51:55;1.85;;;1.63;;
49948;SDS011;35840;45.982;8.890;2022-09-09T03:54:24;2.47;;;1.30;;
49948;SDS011;35840;45.982;8.890;2022-09-09T03:56:51;1.90;;;1.20;;
49948;SDS011;35840;45.982;8.890;2022-09-09T03:59:18;1.65;;;1.55;;
49948;SDS011;35840;45.982;8.890;2022-09-09T04:01:46;1.67;;;1.15;;
49948;SDS011;35840;45.982;8.890;2022-09-09T04:04:14;3.20;;;1.30;;
49948;SDS011;35840;45.982;8.890;2022-09-09T04:06:40;2.05;;;1.13;;
49948;SDS011;35840;45.982;8.890;2022-09-09T04:09:07;2.47;;;1.10;;
49948;SDS011;35840;45.982;8.890;2022-09-09T04:11:34;3.00;;;1.42;;
49948;SDS011;35840;45.982;8.890;2022-09-09T04:14:00;4.78;;;2.13;;
49948;SDS011;35840;45.982;8.890;2022-09-09T04:16:28;1.25;;;1.15;;
49948;SDS011;35840;45.982;8.890;2022-09-09T04:18:55;2.33;;;1.60;;
49948;SDS011;35840;45.982;8.890;2022-09-09T04:21:22;2.10;;;1.60;;
49948;SDS011;35840;45.982;8.890;2022-09-09T04:23:49;2.83;;;1.48;;
49948;SDS011;35840;45.982;8.890;2022-09-09T04:26:16;4.07;;;1.27;;
49948;SDS011;35840;45.982;8.890;2022-09-09T04:28:44;2.10;;;1.70;;
49948;SDS011;35840;45.982;8.890;2022-09-09T04:31:16;3.05;;;1.70;;
49948;SDS011;35840;45.982;8.890;2022-09-09T04:33:47;2.65;;;1.60;;
49948;SDS011;35840;45.982;8.890;2022-09-09T04:36:15;2.67;;;1.60;;
49948;SDS011;35840;45.982;8.890;2022-09-09T04:38:45;2.03;;;1.63;;
49948;SDS011;35840;45.982;8.890;2022-09-09T04:41:13;2.92;;;1.55;;
49948;SDS011;35840;45.982;8.890;2022-09-09T04:43:42;4.03;;;1.45;;
49948;SDS011;35840;45.982;8.890;2022-09-09T04:46:09;2.58;;;1.58;;
49948;SDS011;35840;45.982;8.890;2022-09-09T04:48:36;4.93;;;2.13;;
49948;SDS011;35840;45.982;8.890;2022-09-09T04:51:06;3.53;;;1.98;;
49948;SDS011;35840;45.982;8.890;2022-09-09T04:53:35;2.67;;;1.50;;
49948;SDS011;35840;45.982;8.890;2022-09-09T04:56:10;4.00;;;1.55;;
49948;SDS011;35840;45.982;8.890;2022-09-09T04:58:47;4.07;;;1.50;;
49948;SDS011;35840;45.982;8.890;2022-09-09T05:01:16;3.47;;;1.80;;
49948;SDS011;35840;45.982;8.890;2022-09-09T05:03:45;2.25;;;1.52;;
49948;SDS011;35840;45.982;8.890;2022-09-09T05:06:16;2.55;;;1.73;;
49948;SDS011;35840;45.982;8.890;2022-09-09T05:08:47;6.05;;;2.05;;
49948;SDS011;35840;45.982;8.890;2022-09-09T05:11:28;8.70;;;2.00;;
49948;SDS011;35840;45.982;8.890;2022-09-09T05:14:01;2.40;;;1.50;;
49948;SDS011;35840;45.982;8.890;2022-09-09T05:16:29;9.45;;;1.98;;
49948;SDS011;35840;45.982;8.890;2022-09-09T05:18:57;4.38;;;1.98;;
49948;SDS011;35840;45.982;8.890;2022-09-09T05:21:25;5.78;;;2.45;;
49948;SDS011;35840;45.982;8.890;2022-09-09T05:23:52;3.63;;;1.83;;
49948;SDS011;35840;45.982;8.890;2022-09-09T05:26:20;9.95;;;1.90;;
49948;SDS011;35840;45.982;8.890;2022-09-09T05:28:50;3.50;;;1.90;;
49948;SDS011;35840;45.982;8.890;2022-09-09T05:31:18;2.38;;;1.63;;
49948;SDS011;35840;45.982;8.890;2022-09-09T05:33:48;4.95;;;2.00;;
49948;SDS011;35840;45.982;8.890;2022-09-09T05:36:19;3.20;;;1.88;;
49948;SDS011;35840;45.982;8.890;2022-09-09T05:38:51;1.55;;;1.42;;
49948;SDS011;35840;45.982;8.890;2022-09-09T05:41:20;4.35;;;1.45;;
49948;SDS011;35840;45.982;8.890;2022-09-09T05:43:50;3.25;;;1.73;;
49948;SDS011;35840;45.982;8.890;2022-09-09T05:46:18;2.83;;;1.75;;
49948;SDS011;35840;45.982;8.890;2022-09-09T05:48:48;2.10;;;1.90;;
49948;SDS011;35840;45.982;8.890;2022-09-09T05:51:20;1.92;;;1.55;;
49948;SDS011;35840;45.982;8.890;2022-09-09T05:53:54;1.92;;;1.75;;
49948;SDS011;35840;45.982;8.890;2022-09-09T05:56:28;3.78;;;1.70;;
49948;SDS011;35840;45.982;8.890;2022-09-09T05:58:57;3.25;;;1.45;;
49948;SDS011;35840;45.982;8.890;2022-09-09T06:03:56;2.25;;;1.67;;
49948;SDS011;35840;45.982;8.890;2022-09-09T06:06:24;2.88;;;1.77;;
49948;SDS011;35840;45.982;8.890;2022-09-09T06:08:59;2.88;;;1.80;;
49948;SDS011;35840;45.982;8.890;2022-09-09T06:11:30;4.00;;;2.03;;
49948;SDS011;35840;45.982;8.890;2022-09-09T06:13:58;2.13;;;1.60;;
49948;SDS011;35840;45.982;8.890;2022-09-09T06:16:28;2.92;;;1.50;;
49948;SDS011;35840;45.982;8.890;2022-09-09T06:18:56;3.38;;;1.35;;
49948;SDS011;35840;45.982;8.890;2022-09-09T06:21:26;5.20;;;2.15;;
49948;SDS011;35840;45.982;8.890;2022-09-09T06:23:54;3.00;;;1.85;;
49948;SDS011;35840;45.982;8.890;2022-09-09T06:26:30;2.42;;;1.50;;
49948;SDS011;35840;45.982;8.890;2022-09-09T06:29:02;2.47;;;1.30;;
49948;SDS011;35840;45.982;8.890;2022-09-09T06:31:31;4.03;;;1.80;;
49948;SDS011;35840;45.982;8.890;2022-09-09T06:34:07;9.55;;;2.78;;
49948;SDS011;35840;45.982;8.890;2022-09-09T06:36:38;3.50;;;1.60;;
49948;SDS011;35840;45.982;8.890;2022-09-09T06:39:06;3.95;;;1.50;;
49948;SDS011;35840;45.982;8.890;2022-09-09T06:41:40;3.97;;;1.73;;
49948;SDS011;35840;45.982;8.890;2022-09-09T06:44:21;4.90;;;1.83;;
49948;SDS011;35840;45.982;8.890;2022-09-09T06:46:49;2.42;;;1.40;;
49948;SDS011;35840;45.982;8.890;2022-09-09T06:49:16;2.53;;;1.38;;
49948;SDS011;35840;45.982;8.890;2022-09-09T06:51:42;3.75;;;1.67;;
49948;SDS011;35840;45.982;8.890;2022-09-09T06:54:11;3.90;;;1.33;;
49948;SDS011;35840;45.982;8.890;2022-09-09T06:56:42;1.42;;;1.33;;
49948;SDS011;35840;45.982;8.890;2022-09-09T06:59:20;1.98;;;1.02;;
49948;SDS011;35840;45.982;8.890;2022-09-09T07:01:47;2.88;;;1.35;;
49948;SDS011;35840;45.982;8.890;2022-09-09T07:04:20;4.45;;;1.30;;
49948;SDS011;35840;45.982;8.890;2022-09-09T07:06:47;2.35;;;1.30;;
49948;SDS011;35840;45.982;8.890;2022-09-09T07:09:20;1.48;;;1.23;;
49948;SDS011;35840;45.982;8.890;2022-09-09T07:11:50;2.60;;;1.13;;
49948;SDS011;35840;45.982;8.890;2022-09-09T07:14:22;1.00;;;0.85;;
49948;SDS011;35840;45.982;8.890;2022-09-09T07:16:54;2.80;;;1.52;;
49948;SDS011;35840;45.982;8.890;2022-09-09T07:19:26;1.27;;;1.08;;
49948;SDS011;35840;45.982;8.890;2022-09-09T07:21:54;4.10;;;1.33;;
49948;SDS011;35840;45.982;8.890;2022-09-09T07:24:22;3.03;;;1.13;;
49948;SDS011;35840;45.982;8.890;2022-09-09T07:26:50;1.52;;;1.23;;
49948;SDS011;35840;45.982;8.890;2022-09-09T07:29:19;1.60;;;1.10;;
49948;SDS011;35840;45.982;8.890;2022-09-09T07:31:47;1.17;;;1.10;;
49948;SDS011;35840;45.982;8.890;2022-09-09T07:34:19;1.52;;;1.10;;
49948;SDS011;35840;45.982;8.890;2022-09-09T07:36:46;2.40;;;1.08;;
49948;SDS011;35840;45.982;8.890;2022-09-09T07:39:13;1.20;;;0.95;;
49948;SDS011;35840;45.982;8.890;2022-09-09T07:41:46;1.77;;;1.15;;
49948;SDS011;35840;45.982;8.890;2022-09-09T07:44:18;1.13;;;1.00;;
49948;SDS011;35840;45.982;8.890;2022-09-09T07:46:58;5.40;;;1.50;;
49948;SDS011;35840;45.982;8.890;2022-09-09T07:49:31;6.43;;;1.45;;
49948;SDS011;35840;45.982;8.890;2022-09-09T07:52:00;2.03;;;1.00;;
49948;SDS011;35840;45.982;8.890;2022-09-09T07:54:27;1.27;;;1.10;;
49948;SDS011;35840;45.982;8.890;2022-09-09T07:56:54;2.33;;;1.33;;
49948;SDS011;35840;45.982;8.890;2022-09-09T07:59:24;1.30;;;1.10;;
49948;SDS011;35840;45.982;8.890;2022-09-09T08:01:53;3.13;;;0.98;;
49948;SDS011;35840;45.982;8.890;2022-09-09T08:04:24;2.53;;;1.05;;
49948;SDS011;35840;45.982;8.890;2022-09-09T08:06:53;1.33;;;0.90;;
49948;SDS011;35840;45.982;8.890;2022-09-09T08:09:23;2.63;;;1.42;;
49948;SDS011;35840;45.982;8.890;2022-09-09T08:11:55;2.78;;;1.27;;
49948;SDS011;35840;45.982;8.890;2022-09-09T08:14:23;1.52;;;1.10;;
49948;SDS011;35840;45.982;8.890;2022-09-09T08:16:50;1.05;;;0.93;;
49948;SDS011;35840;45.982;8.890;2022-09-09T08:19:22;1.98;;;1.65;;
49948;SDS011;35840;45.982;8.890;2022-09-09T08:21:50;3.47;;;2.30;;
49948;SDS011;35840;45.982;8.890;2022-09-09T08:24:17;1.63;;;1.10;;
49948;SDS011;35840;45.982;8.890;2022-09-09T08:26:48;3.15;;;1.30;;
49948;SDS011;35840;45.982;8.890;2022-09-09T08:29:19;2.67;;;1.15;;
49948;SDS011;35840;45.982;8.890;2022-09-09T08:31:47;1.67;;;1.17;;
49948;SDS011;35840;45.982;8.890;2022-09-09T08:34:21;2.25;;;1.40;;
49948;SDS011;35840;45.982;8.890;2022-09-09T08:36:49;1.45;;;0.77;;
49948;SDS011;35840;45.982;8.890;2022-09-09T08:39:21;1.67;;;0.90;;
49948;SDS011;35840;45.982;8.890;2022-09-09T08:44:48;2.50;;;0.98;;
49948;SDS011;35840;45.982;8.890;2022-09-09T08:47:28;1.75;;;1.13;;
49948;SDS011;35840;45.982;8.890;2022-09-09T08:50:07;1.33;;;1.02;;
49948;SDS011;35840;45.982;8.890;2022-09-09T08:55:43;2.28;;;1.10;;
49948;SDS011;35840;45.982;8.890;2022-09-09T09:01:00;1.15;;;0.82;;
49948;SDS011;35840;45.982;8.890;2022-09-09T09:06:17;1.23;;;0.80;;
49948;SDS011;35840;45.982;8.890;2022-09-09T09:09:04;1.85;;;0.90;;
49948;SDS011;35840;45.982;8.890;2022-09-09T09:11:40;1.70;;;0.80;;
49948;SDS011;35840;45.982;8.890;2022-09-09T09:19:33;1.23;;;0.80;;
49948;SDS011;35840;45.982;8.890;2022-09-09T09:22:21;1.27;;;1.00;;
49948;SDS011;35840;45.982;8.890;2022-09-09T09:25:17;0.82;;;0.80;;
49948;SDS011;35840;45.982;8.890;2022-09-09T09:30:42;0.80;;;0.80;;
49948;SDS011;35840;45.982;8.890;2022-09-09T09:35:59;1.30;;;0.75;;
49948;SDS011;35840;45.982;8.890;2022-09-09T09:38:28;2.30;;;0.70;;
49948;SDS011;35840;45.982;8.890;2022-09-09T09:41:15;0.70;;;0.70;;
49948;SDS011;35840;45.982;8.890;2022-09-09T09:43:52;0.70;;;0.65;;
49948;SDS011;35840;45.982;8.890;2022-09-09T09:46:22;2.65;;;0.93;;
49948;SDS011;35840;45.982;8.890;2022-09-09T09:48:57;2.42;;;0.80;;
49948;SDS011;35840;45.982;8.890;2022-09-09T09:51:30;3.35;;;1.10;;
49948;SDS011;35840;45.982;8.890;2022-09-09T09:56:53;1.30;;;0.77;;
49948;SDS011;35840;45.982;8.890;2022-09-09T09:59:21;0.90;;;0.80;;
49948;SDS011;35840;45.982;8.890;2022-09-09T10:02:14;3.35;;;0.93;;
49948;SDS011;35840;45.982;8.890;2022-09-09T10:07:32;0.60;;;0.60;;
49948;SDS011;35840;45.982;8.890;2022-09-09T10:09:59;2.35;;;0.85;;
49948;SDS011;35840;45.982;8.890;2022-09-09T10:15:21;1.95;;;0.82;;
49948;SDS011;35840;45.982;8.890;2022-09-09T10:20:58;1.63;;;0.80;;
49948;SDS011;35840;45.982;8.890;2022-09-09T10:32:12;0.98;;;0.90;;
49948;SDS011;35840;45.982;8.890;2022-09-09T10:37:33;2.38;;;1.02;;
49948;SDS011;35840;45.982;8.890;2022-09-09T10:40:28;0.77;;;0.77;;
49948;SDS011;35840;45.982;8.890;2022-09-09T10:43:01;0.95;;;0.70;;
49948;SDS011;35840;45.982;8.890;2022-09-09T10:45:58;0.82;;;0.82;;
49948;SDS011;35840;45.982;8.890;2022-09-09T10:51:23;0.55;;;0.55;;
49948;SDS011;35840;45.982;8.890;2022-09-09T10:56:43;1.42;;;0.85;;
49948;SDS011;35840;45.982;8.890;2022-09-09T10:59:16;1.10;;;1.00;;
49948;SDS011;35840;45.982;8.890;2022-09-09T11:04:35;1.35;;;1.00;;
49948;SDS011;35840;45.982;8.890;2022-09-09T11:07:34;1.63;;;1.20;;
49948;SDS011;35840;45.982;8.890;2022-09-09T11:10:11;3.08;;;1.35;;
49948;SDS011;35840;45.982;8.890;2022-09-09T11:12:50;2.25;;;1.50;;
49948;SDS011;35840;45.982;8.890;2022-09-09T11:15:28;2.55;;;1.65;;
49948;SDS011;35840;45.982;8.890;2022-09-09T11:18:03;1.48;;;1.38;;
49948;SDS011;35840;45.982;8.890;2022-09-09T11:20:32;1.70;;;1.60;;
49948;SDS011;35840;45.982;8.890;2022-09-09T11:23:05;3.33;;;1.50;;
49948;SDS011;35840;45.982;8.890;2022-09-09T11:25:40;3.03;;;1.30;;
49948;SDS011;35840;45.982;8.890;2022-09-09T11:28:26;1.45;;;1.35;;
49948;SDS011;35840;45.982;8.890;2022-09-09T11:31:16;2.35;;;1.77;;
49948;SDS011;35840;45.982;8.890;2022-09-09T11:42:27;2.97;;;1.48;;
49948;SDS011;35840;45.982;8.890;2022-09-09T11:44:53;2.45;;;1.90;;
49948;SDS011;35840;45.982;8.890;2022-09-09T11:47:22;2.58;;;1.33;;
49948;SDS011;35840;45.982;8.890;2022-09-09T11:50:06;6.07;;;1.73;;
49948;SDS011;35840;45.982;8.890;2022-09-09T11:52:36;2.17;;;1.67;;
49948;SDS011;35840;45.982;8.890;2022-09-09T11:55:11;5.90;;;2.03;;
49948;SDS011;35840;45.982;8.890;2022-09-09T11:58:15;2.67;;;1.20;;
49948;SDS011;35840;45.982;8.890;2022-09-09T12:00:45;2.92;;;2.33;;
49948;SDS011;35840;45.982;8.890;2022-09-09T12:05:59;1.30;;;1.20;;
49948;SDS011;35840;45.982;8.890;2022-09-09T12:08:35;1.73;;;1.40;;
49948;SDS011;35840;45.982;8.890;2022-09-09T12:11:03;2.65;;;1.60;;
49948;SDS011;35840;45.982;8.890;2022-09-09T12:13:30;1.63;;;1.48;;
49948;SDS011;35840;45.982;8.890;2022-09-09T12:15:58;4.60;;;1.70;;
49948;SDS011;35840;45.982;8.890;2022-09-09T12:18:33;3.63;;;1.50;;
49948;SDS011;35840;45.982;8.890;2022-09-09T12:21:14;2.00;;;1.40;;
49948;SDS011;35840;45.982;8.890;2022-09-09T12:23:55;2.45;;;1.35;;
49948;SDS011;35840;45.982;8.890;2022-09-09T12:32:13;3.08;;;1.50;;
49948;SDS011;35840;45.982;8.890;2022-09-09T12:34:49;2.38;;;1.15;;
49948;SDS011;35840;45.982;8.890;2022-09-09T12:37:27;1.63;;;1.20;;
49948;SDS011;35840;45.982;8.890;2022-09-09T12:40:00;2.22;;;1.08;;
49948;SDS011;35840;45.982;8.890;2022-09-09T12:42:29;2.90;;;1.50;;
49948;SDS011;35840;45.982;8.890;2022-09-09T12:44:57;2.20;;;1.00;;
49948;SDS011;35840;45.982;8.890;2022-09-09T12:47:26;2.55;;;1.20;;
49948;SDS011;35840;45.982;8.890;2022-09-09T12:50:31;2.97;;;1.05;;
49948;SDS011;35840;45.982;8.890;2022-09-09T12:53:43;2.50;;;1.30;;
49948;SDS011;35840;45.982;8.890;2022-09-09T12:56:05;4.70;;;1.30;;
49948;SDS011;35840;45.982;8.890;2022-09-09T12:58:35;3.97;;;1.38;;
49948;SDS011;35840;45.982;8.890;2022-09-09T13:01:04;3.03;;;1.10;;
49948;SDS011;35840;45.982;8.890;2022-09-09T13:03:32;2.67;;;1.20;;
49948;SDS011;35840;45.982;8.890;2022-09-09T13:09:01;3.67;;;1.38;;
49948;SDS011;35840;45.982;8.890;2022-09-09T13:11:30;2.25;;;1.20;;
49948;SDS011;35840;45.982;8.890;2022-09-09T13:14:02;2.88;;;1.20;;
49948;SDS011;35840;45.982;8.890;2022-09-09T13:16:30;2.17;;;1.10;;
49948;SDS011;35840;45.982;8.890;2022-09-09T13:19:09;2.38;;;0.95;;
49948;SDS011;35840;45.982;8.890;2022-09-09T13:21:41;1.90;;;0.95;;
49948;SDS011;35840;45.982;8.890;2022-09-09T13:26:56;2.58;;;1.17;;
49948;SDS011;35840;45.982;8.890;2022-09-09T13:29:24;3.22;;;1.33;;
49948;SDS011;35840;45.982;8.890;2022-09-09T13:31:50;1.85;;;1.25;;
49948;SDS011;35840;45.982;8.890;2022-09-09T13:34:29;1.52;;;1.10;;
49948;SDS011;35840;45.982;8.890;2022-09-09T13:37:02;4.95;;;1.33;;
49948;SDS011;35840;45.982;8.890;2022-09-09T13:39:35;1.83;;;1.63;;
49948;SDS011;35840;45.982;8.890;2022-09-09T13:42:03;2.25;;;0.90;;
49948;SDS011;35840;45.982;8.890;2022-09-09T13:44:33;2.42;;;1.65;;
49948;SDS011;35840;45.982;8.890;2022-09-09T13:49:35;1.30;;;0.85;;
49948;SDS011;35840;45.982;8.890;2022-09-09T13:52:09;1.10;;;1.10;;
49948;SDS011;35840;45.982;8.890;2022-09-09T13:54:38;3.70;;;1.30;;
49948;SDS011;35840;45.982;8.890;2022-09-09T13:57:05;3.53;;;1.85;;
49948;SDS011;35840;45.982;8.890;2022-09-09T13:59:40;5.15;;;1.42;;
49948;SDS011;35840;45.982;8.890;2022-09-09T14:02:29;3.25;;;1.30;;
49948;SDS011;35840;45.982;8.890;2022-09-09T14:04:57;3.00;;;1.10;;
49948;SDS011;35840;45.982;8.890;2022-09-09T14:07:24;2.83;;;1.27;;
49948;SDS011;35840;45.982;8.890;2022-09-09T14:09:51;2.42;;;1.45;;
49948;SDS011;35840;45.982;8.890;2022-09-09T14:12:18;2.78;;;1.40;;
49948;SDS011;35840;45.982;8.890;2022-09-09T14:14:46;2.47;;;1.58;;
49948;SDS011;35840;45.982;8.890;2022-09-09T14:17:12;1.50;;;1.40;;
49948;SDS011;35840;45.982;8.890;2022-09-09T14:19:40;1.67;;;1.42;;
49948;SDS011;35840;45.982;8.890;2022-09-09T14:22:07;3.05;;;1.73;;
49948;SDS011;35840;45.982;8.890;2022-09-09T14:24:33;1.20;;;1.10;;
49948;SDS011;35840;45.982;8.890;2022-09-09T14:27:00;1.48;;;1.38;;
49948;SDS011;35840;45.982;8.890;2022-09-09T14:29:26;2.40;;;1.48;;
49948;SDS011;35840;45.982;8.890;2022-09-09T14:31:53;2.00;;;1.80;;
49948;SDS011;35840;45.982;8.890;2022-09-09T14:34:20;3.45;;;1.60;;
49948;SDS011;35840;45.982;8.890;2022-09-09T14:36:46;2.97;;;1.67;;
49948;SDS011;35840;45.982;8.890;2022-09-09T14:39:13;3.13;;;1.77;;
49948;SDS011;35840;45.982;8.890;2022-09-09T14:41:40;5.20;;;1.33;;
49948;SDS011;35840;45.982;8.890;2022-09-09T14:44:07;2.63;;;1.50;;
49948;SDS011;35840;45.982;8.890;2022-09-09T14:46:34;2.78;;;1.60;;
49948;SDS011;35840;45.982;8.890;2022-09-09T14:49:01;3.50;;;1.83;;
49948;SDS011;35840;45.982;8.890;2022-09-09T14:51:27;2.50;;;1.60;;
49948;SDS011;35840;45.982;8.890;2022-09-09T14:53:57;11.80;;;2.08;;
49948;SDS011;35840;45.982;8.890;2022-09-09T14:56:25;1.80;;;1.40;;
49948;SDS011;35840;45.982;8.890;2022-09-09T14:58:56;2.00;;;1.80;;
49948;SDS011;35840;45.982;8.890;2022-09-09T15:01:24;1.52;;;1.42;;
49948;SDS011;35840;45.982;8.890;2022-09-09T15:03:56;2.55;;;1.60;;
49948;SDS011;35840;45.982;8.890;2022-09-09T15:06:27;2.22;;;1.83;;
49948;SDS011;35840;45.982;8.890;2022-09-09T15:08:56;3.15;;;1.52;;
49948;SDS011;35840;45.982;8.890;2022-09-09T15:11:27;3.58;;;2.13;;
49948;SDS011;35840;45.982;8.890;2022-09-09T15:13:56;2.25;;;1.63;;
49948;SDS011;35840;45.982;8.890;2022-09-09T15:16:26;3.80;;;1.52;;
49948;SDS011;35840;45.982;8.890;2022-09-09T15:18:55;2.80;;;1.52;;
49948;SDS011;35840;45.982;8.890;2022-09-09T15:21:28;2.63;;;1.80;;
49948;SDS011;35840;45.982;8.890;2022-09-09T15:23:57;4.45;;;2.50;;
49948;SDS011;35840;45.982;8.890;2022-09-09T15:26:25;8.60;;;2.72;;
49948;SDS011;35840;45.982;8.890;2022-09-09T15:28:53;7.75;;;2.95;;
49948;SDS011;35840;45.982;8.890;2022-09-09T15:31:21;16.33;;;7.22;;
49948;SDS011;35840;45.982;8.890;2022-09-09T15:33:50;10.07;;;4.07;;
49948;SDS011;35840;45.982;8.890;2022-09-09T15:38:52;7.72;;;3.45;;
49948;SDS011;35840;45.982;8.890;2022-09-09T15:41:19;7.90;;;4.38;;
49948;SDS011;35840;45.982;8.890;2022-09-09T15:43:48;21.02;;;6.35;;
49948;SDS011;35840;45.982;8.890;2022-09-09T15:48:43;6.05;;;2.88;;
49948;SDS011;35840;45.982;8.890;2022-09-09T15:51:14;9.35;;;3.45;;
49948;SDS011;35840;45.982;8.890;2022-09-09T15:54:00;5.57;;;2.53;;
49948;SDS011;35840;45.982;8.890;2022-09-09T15:56:28;7.00;;;2.92;;
49948;SDS011;35840;45.982;8.890;2022-09-09T15:58:56;12.32;;;4.93;;
49948;SDS011;35840;45.982;8.890;2022-09-09T16:01:25;13.60;;;6.45;;
49948;SDS011;35840;45.982;8.890;2022-09-09T16:03:53;7.97;;;4.30;;
49948;SDS011;35840;45.982;8.890;2022-09-09T16:06:21;5.50;;;3.10;;
49948;SDS011;35840;45.982;8.890;2022-09-09T16:08:50;9.05;;;4.10;;
49948;SDS011;35840;45.982;8.890;2022-09-09T16:11:19;7.60;;;4.20;;
49948;SDS011;35840;45.982;8.890;2022-09-09T16:13:52;8.85;;;4.68;;
49948;SDS011;35840;45.982;8.890;2022-09-09T16:16:22;8.45;;;3.40;;
49948;SDS011;35840;45.982;8.890;2022-09-09T16:18:53;14.63;;;5.50;;
49948;SDS011;35840;45.982;8.890;2022-09-09T16:23:51;2.92;;;2.25;;
49948;SDS011;35840;45.982;8.890;2022-09-09T16:26:19;2.05;;;1.70;;
49948;SDS011;35840;45.982;8.890;2022-09-09T16:28:46;4.88;;;2.00;;
49948;SDS011;35840;45.982;8.890;2022-09-09T16:31:15;2.20;;;1.65;;
49948;SDS011;35840;45.982;8.890;2022-09-09T16:33:44;2.67;;;1.88;;
49948;SDS011;35840;45.982;8.890;2022-09-09T16:36:14;4.22;;;2.17;;
49948;SDS011;35840;45.982;8.890;2022-09-09T16:38:42;3.58;;;1.90;;
49948;SDS011;35840;45.982;8.890;2022-09-09T16:41:09;2.55;;;2.05;;
49948;SDS011;35840;45.982;8.890;2022-09-09T16:43:37;3.22;;;1.88;;
49948;SDS011;35840;45.982;8.890;2022-09-09T16:46:12;4.35;;;2.05;;
49948;SDS011;35840;45.982;8.890;2022-09-09T16:48:46;2.13;;;1.90;;
49948;SDS011;35840;45.982;8.890;2022-09-09T16:51:15;2.58;;;2.03;;
49948;SDS011;35840;45.982;8.890;2022-09-09T16:53:44;4.25;;;1.90;;
49948;SDS011;35840;45.982;8.890;2022-09-09T16:56:13;5.80;;;2.20;;
49948;SDS011;35840;45.982;8.890;2022-09-09T16:58:42;2.35;;;1.95;;
49948;SDS011;35840;45.982;8.890;2022-09-09T17:01:11;5.28;;;2.13;;
49948;SDS011;35840;45.982;8.890;2022-09-09T17:03:40;2.83;;;2.05;;
49948;SDS011;35840;45.982;8.890;2022-09-09T17:06:13;4.90;;;2.00;;
49948;SDS011;35840;45.982;8.890;2022-09-09T17:08:41;3.95;;;2.03;;
49948;SDS011;35840;45.982;8.890;2022-09-09T17:11:12;5.75;;;2.22;;
49948;SDS011;35840;45.982;8.890;2022-09-09T17:13:41;2.35;;;2.03;;
49948;SDS011;35840;45.982;8.890;2022-09-09T17:16:09;4.90;;;2.53;;
49948;SDS011;35840;45.982;8.890;2022-09-09T17:18:36;5.07;;;2.03;;
49948;SDS011;35840;45.982;8.890;2022-09-09T17:21:08;3.88;;;2.10;;
49948;SDS011;35840;45.982;8.890;2022-09-09T17:23:40;3.15;;;2.20;;
49948;SDS011;35840;45.982;8.890;2022-09-09T17:26:09;8.07;;;2.38;;
49948;SDS011;35840;45.982;8.890;2022-09-09T17:28:38;3.83;;;2.25;;
49948;SDS011;35840;45.982;8.890;2022-09-09T17:31:05;6.80;;;2.08;;